Lenhartsville, Pennsylvania
Current Conditions -  °F | °C
As of 10:54 PM on Wednesday 26 Nov 2014 (Local Time) from KRDG Reporting Station
Overcast Overcast  
Wind Chill: 28°   Ceiling: 10000
Heat Index: 36°   Visibility: 10mi
Dew Point: 29°   Wind: 10mph
Humidity: 76%   Direction: 300°WNW
Pressure: 29.92"   Gusts: NA
Location:  40.57°N, 75.89°W
Report Text: KRDG 270354Z 30009KT 10SM BKN100 OVC110 02/M02 A2992 RMK AO2 SLP138 P0001 T00221017
Loading
Personal Weather Stations






























Interactive Weather Map New forecast layout! Learn more

10-Day Weather Forecast

Advertisements
Track Severe Weather on mobile